sensor_id;sensor_type;location;lat;lon;timestamp;temperature;humidity
12957;DHT22;6543;48.836;10.092;2023-05-29T00:01:13;12.90;99.90
12957;DHT22;6543;48.836;10.092;2023-05-29T00:03:44;12.60;99.90
12957;DHT22;6543;48.836;10.092;2023-05-29T00:06:20;12.60;99.90
12957;DHT22;6543;48.836;10.092;2023-05-29T00:08:57;11.70;99.90
12957;DHT22;6543;48.836;10.092;2023-05-29T00:11:34;12.10;99.90
12957;DHT22;6543;48.836;10.092;2023-05-29T00:14:07;13.10;99.90
12957;DHT22;6543;48.836;10.092;2023-05-29T00:16:58;12.30;99.90
12957;DHT22;6543;48.836;10.092;2023-05-29T00:19:49;12.70;99.90
12957;DHT22;6543;48.836;10.092;2023-05-29T00:22:22;12.80;99.90
12957;DHT22;6543;48.836;10.092;2023-05-29T00:24:55;11.60;99.90
12957;DHT22;6543;48.836;10.092;2023-05-29T00:27:28;11.90;99.90
12957;DHT22;6543;48.836;10.092;2023-05-29T00:30:12;11.60;99.90
12957;DHT22;6543;48.836;10.092;2023-05-29T00:32:41;11.10;99.90
12957;DHT22;6543;48.836;10.092;2023-05-29T00:35:19;11.20;99.90
12957;DHT22;6543;48.836;10.092;2023-05-29T00:38:17;11.10;99.90
12957;DHT22;6543;48.836;10.092;2023-05-29T00:41:03;11.30;99.90
12957;DHT22;6543;48.836;10.092;2023-05-29T00:43:44;10.90;99.90
12957;DHT22;6543;48.836;10.092;2023-05-29T00:46:19;10.40;99.90
12957;DHT22;6543;48.836;10.092;2023-05-29T00:48:56;10.90;99.90
12957;DHT22;6543;48.836;10.092;2023-05-29T00:51:42;10.90;99.90
12957;DHT22;6543;48.836;10.092;2023-05-29T00:54:11;11.80;99.90
12957;DHT22;6543;48.836;10.092;2023-05-29T00:56:42;10.90;99.90
12957;DHT22;6543;48.836;10.092;2023-05-29T00:59:26;11.00;99.90
12957;DHT22;6543;48.836;10.092;2023-05-29T01:02:12;10.40;99.90
12957;DHT22;6543;48.836;10.092;2023-05-29T01:05:08;10.90;99.90
12957;DHT22;6543;48.836;10.092;2023-05-29T01:07:44;11.20;99.90
12957;DHT22;6543;48.836;10.092;2023-05-29T01:10:24;11.40;99.90
12957;DHT22;6543;48.836;10.092;2023-05-29T01:13:06;10.80;99.90
12957;DHT22;6543;48.836;10.092;2023-05-29T01:15:46;10.70;99.90
12957;DHT22;6543;48.836;10.092;2023-05-29T01:18:34;12.20;99.90
12957;DHT22;6543;48.836;10.092;2023-05-29T01:21:26;11.50;99.90
12957;DHT22;6543;48.836;10.092;2023-05-29T01:24:03;11.20;99.90
12957;DHT22;6543;48.836;10.092;2023-05-29T01:26:55;10.70;99.90
12957;DHT22;6543;48.836;10.092;2023-05-29T01:29:39;10.40;99.90
12957;DHT22;6543;48.836;10.092;2023-05-29T01:32:28;10.40;99.90
12957;DHT22;6543;48.836;10.092;2023-05-29T01:35:15;10.50;99.90
12957;DHT22;6543;48.836;10.092;2023-05-29T01:37:48;10.60;99.90
12957;DHT22;6543;48.836;10.092;2023-05-29T01:40:19;11.60;99.90
12957;DHT22;6543;48.836;10.092;2023-05-29T01:42:51;10.30;99.90
12957;DHT22;6543;48.836;10.092;2023-05-29T01:45:26;10.20;99.90
12957;DHT22;6543;48.836;10.092;2023-05-29T01:48:12;12.20;99.90
12957;DHT22;6543;48.836;10.092;2023-05-29T01:50:42;8.30;99.90
12957;DHT22;6543;48.836;10.092;2023-05-29T01:53:12;10.20;99.90
12957;DHT22;6543;48.836;10.092;2023-05-29T01:55:41;10.20;99.90
12957;DHT22;6543;48.836;10.092;2023-05-29T01:58:22;10.30;99.90
12957;DHT22;6543;48.836;10.092;2023-05-29T02:01:04;10.50;99.90
12957;DHT22;6543;48.836;10.092;2023-05-29T02:03:38;11.30;99.90
12957;DHT22;6543;48.836;10.092;2023-05-29T02:06:07;10.10;99.90
12957;DHT22;6543;48.836;10.092;2023-05-29T02:08:55;8.80;99.90
12957;DHT22;6543;48.836;10.092;2023-05-29T02:11:35;9.70;99.90
12957;DHT22;6543;48.836;10.092;2023-05-29T02:14:24;9.90;99.90
12957;DHT22;6543;48.836;10.092;2023-05-29T02:16:51;9.90;99.90
12957;DHT22;6543;48.836;10.092;2023-05-29T02:19:23;10.10;99.90
12957;DHT22;6543;48.836;10.092;2023-05-29T02:22:09;10.10;99.90
12957;DHT22;6543;48.836;10.092;2023-05-29T02:24:47;9.90;99.90
12957;DHT22;6543;48.836;10.092;2023-05-29T02:27:15;9.70;99.90
12957;DHT22;6543;48.836;10.092;2023-05-29T02:30:02;8.60;99.90
12957;DHT22;6543;48.836;10.092;2023-05-29T02:32:46;9.70;99.90
12957;DHT22;6543;48.836;10.092;2023-05-29T02:35:26;12.00;99.90
12957;DHT22;6543;48.836;10.092;2023-05-29T02:37:58;10.70;99.90
12957;DHT22;6543;48.836;10.092;2023-05-29T02:40:31;10.70;99.90
12957;DHT22;6543;48.836;10.092;2023-05-29T02:43:05;9.70;99.90
12957;DHT22;6543;48.836;10.092;2023-05-29T02:45:41;9.50;99.90
12957;DHT22;6543;48.836;10.092;2023-05-29T02:48:11;10.80;99.90
12957;DHT22;6543;48.836;10.092;2023-05-29T02:50:52;9.60;99.90
12957;DHT22;6543;48.836;10.092;2023-05-29T02:53:24;9.70;99.90
12957;DHT22;6543;48.836;10.092;2023-05-29T02:55:59;10.80;99.90
12957;DHT22;6543;48.836;10.092;2023-05-29T02:58:37;10.90;99.90
12957;DHT22;6543;48.836;10.092;2023-05-29T03:01:13;11.20;99.90
12957;DHT22;6543;48.836;10.092;2023-05-29T03:03:48;10.40;99.90
12957;DHT22;6543;48.836;10.092;2023-05-29T03:06:22;9.80;99.90
12957;DHT22;6543;48.836;10.092;2023-05-29T03:09:01;10.20;99.90
12957;DHT22;6543;48.836;10.092;2023-05-29T03:11:35;9.60;99.90
12957;DHT22;6543;48.836;10.092;2023-05-29T03:14:20;9.10;99.90
12957;DHT22;6543;48.836;10.092;2023-05-29T03:16:57;11.40;99.90
12957;DHT22;6543;48.836;10.092;2023-05-29T03:19:29;9.90;99.90
12957;DHT22;6543;48.836;10.092;2023-05-29T03:21:59;9.40;99.90
12957;DHT22;6543;48.836;10.092;2023-05-29T03:24:29;9.40;99.90
12957;DHT22;6543;48.836;10.092;2023-05-29T03:27:08;11.00;99.90
12957;DHT22;6543;48.836;10.092;2023-05-29T03:29:41;7.80;99.90
12957;DHT22;6543;48.836;10.092;2023-05-29T03:32:15;9.40;99.90
12957;DHT22;6543;48.836;10.092;2023-05-29T03:35:15;9.40;99.90
12957;DHT22;6543;48.836;10.092;2023-05-29T03:37:50;9.50;99.90
12957;DHT22;6543;48.836;10.092;2023-05-29T03:40:28;11.90;99.90
12957;DHT22;6543;48.836;10.092;2023-05-29T03:43:00;9.60;99.90
12957;DHT22;6543;48.836;10.092;2023-05-29T03:45:35;10.50;99.90
12957;DHT22;6543;48.836;10.092;2023-05-29T03:48:20;9.80;99.90
12957;DHT22;6543;48.836;10.092;2023-05-29T03:50:57;9.70;99.90
12957;DHT22;6543;48.836;10.092;2023-05-29T03:53:35;10.30;99.90
12957;DHT22;6543;48.836;10.092;2023-05-29T03:56:05;9.60;99.90
12957;DHT22;6543;48.836;10.092;2023-05-29T03:58:42;8.20;99.90
12957;DHT22;6543;48.836;10.092;2023-05-29T04:01:14;9.80;99.90
12957;DHT22;6543;48.836;10.092;2023-05-29T04:03:58;9.90;99.90
12957;DHT22;6543;48.836;10.092;2023-05-29T04:06:37;9.70;99.90
12957;DHT22;6543;48.836;10.092;2023-05-29T04:09:21;10.50;99.90
12957;DHT22;6543;48.836;10.092;2023-05-29T04:12:01;10.00;99.90
12957;DHT22;6543;48.836;10.092;2023-05-29T04:14:42;10.00;99.90
12957;DHT22;6543;48.836;10.092;2023-05-29T04:17:16;12.00;99.90
12957;DHT22;6543;48.836;10.092;2023-05-29T04:19:50;10.50;99.90
12957;DHT22;6543;48.836;10.092;2023-05-29T04:22:24;9.90;99.90
12957;DHT22;6543;48.836;10.092;2023-05-29T04:25:04;10.60;99.90
12957;DHT22;6543;48.836;10.092;2023-05-29T04:27:40;10.60;99.90
12957;DHT22;6543;48.836;10.092;2023-05-29T04:30:19;10.80;99.90
12957;DHT22;6543;48.836;10.092;2023-05-29T04:32:54;11.10;99.90
12957;DHT22;6543;48.836;10.092;2023-05-29T04:35:31;12.00;99.90
12957;DHT22;6543;48.836;10.092;2023-05-29T04:38:11;11.40;99.90
12957;DHT22;6543;48.836;10.092;2023-05-29T04:40:47;11.60;99.90
12957;DHT22;6543;48.836;10.092;2023-05-29T04:43:24;11.50;99.90
12957;DHT22;6543;48.836;10.092;2023-05-29T04:45:56;12.80;99.90
12957;DHT22;6543;48.836;10.092;2023-05-29T04:48:42;13.30;99.90
12957;DHT22;6543;48.836;10.092;2023-05-29T04:51:12;10.20;99.90
12957;DHT22;6543;48.836;10.092;2023-05-29T04:53:46;13.50;99.90
12957;DHT22;6543;48.836;10.092;2023-05-29T04:56:26;13.10;99.90
12957;DHT22;6543;48.836;10.092;2023-05-29T04:58:58;13.20;99.90
12957;DHT22;6543;48.836;10.092;2023-05-29T05:01:40;12.70;99.90
12957;DHT22;6543;48.836;10.092;2023-05-29T05:07:09;11.00;99.90
12957;DHT22;6543;48.836;10.092;2023-05-29T05:09:42;13.60;99.90
12957;DHT22;6543;48.836;10.092;2023-05-29T05:12:14;14.40;99.90
12957;DHT22;6543;48.836;10.092;2023-05-29T05:15:08;13.10;99.90
12957;DHT22;6543;48.836;10.092;2023-05-29T05:17:37;13.30;99.90
12957;DHT22;6543;48.836;10.092;2023-05-29T05:20:06;13.90;99.90
12957;DHT22;6543;48.836;10.092;2023-05-29T05:22:48;13.30;99.90
12957;DHT22;6543;48.836;10.092;2023-05-29T05:25:18;13.50;99.90
12957;DHT22;6543;48.836;10.092;2023-05-29T05:27:45;13.80;99.90
12957;DHT22;6543;48.836;10.092;2023-05-29T05:30:13;14.40;99.90
12957;DHT22;6543;48.836;10.092;2023-05-29T05:32:40;14.20;99.90
12957;DHT22;6543;48.836;10.092;2023-05-29T05:35:07;14.40;99.90
12957;DHT22;6543;48.836;10.092;2023-05-29T05:37:37;14.60;99.90
12957;DHT22;6543;48.836;10.092;2023-05-29T05:40:26;14.60;99.90
12957;DHT22;6543;48.836;10.092;2023-05-29T05:42:54;14.90;99.90
12957;DHT22;6543;48.836;10.092;2023-05-29T05:45:22;15.60;99.90
12957;DHT22;6543;48.836;10.092;2023-05-29T05:47:49;14.60;99.90
12957;DHT22;6543;48.836;10.092;2023-05-29T05:50:16;14.80;99.90
12957;DHT22;6543;48.836;10.092;2023-05-29T05:52:43;14.90;99.90
12957;DHT22;6543;48.836;10.092;2023-05-29T05:55:28;14.90;99.90
12957;DHT22;6543;48.836;10.092;2023-05-29T05:58:05;15.00;99.90
12957;DHT22;6543;48.836;10.092;2023-05-29T06:00:41;15.40;99.90
12957;DHT22;6543;48.836;10.092;2023-05-29T06:03:18;15.30;99.90
12957;DHT22;6543;48.836;10.092;2023-05-29T06:06:05;15.30;99.90
12957;DHT22;6543;48.836;10.092;2023-05-29T06:08:39;15.60;99.90
12957;DHT22;6543;48.836;10.092;2023-05-29T06:11:07;15.80;99.90
12957;DHT22;6543;48.836;10.092;2023-05-29T06:13:35;15.80;99.90
12957;DHT22;6543;48.836;10.092;2023-05-29T06:16:05;16.00;99.90
12957;DHT22;6543;48.836;10.092;2023-05-29T06:18:34;16.20;99.90
12957;DHT22;6543;48.836;10.092;2023-05-29T06:21:03;16.30;99.90
12957;DHT22;6543;48.836;10.092;2023-05-29T06:23:35;16.30;99.90
12957;DHT22;6543;48.836;10.092;2023-05-29T06:26:11;16.60;99.90
12957;DHT22;6543;48.836;10.092;2023-05-29T06:28:40;16.50;99.90
12957;DHT22;6543;48.836;10.092;2023-05-29T06:31:07;16.60;99.90
12957;DHT22;6543;48.836;10.092;2023-05-29T06:33:36;16.70;99.90
12957;DHT22;6543;48.836;10.092;2023-05-29T06:36:07;16.90;99.90
12957;DHT22;6543;48.836;10.092;2023-05-29T06:38:34;16.60;99.90
12957;DHT22;6543;48.836;10.092;2023-05-29T06:41:01;16.90;99.90
12957;DHT22;6543;48.836;10.092;2023-05-29T06:43:28;16.50;99.90
12957;DHT22;6543;48.836;10.092;2023-05-29T06:45:57;16.90;99.90
12957;DHT22;6543;48.836;10.092;2023-05-29T06:48:23;17.00;99.90
12957;DHT22;6543;48.836;10.092;2023-05-29T06:50:53;17.10;99.90
12957;DHT22;6543;48.836;10.092;2023-05-29T06:53:20;17.30;99.90
12957;DHT22;6543;48.836;10.092;2023-05-29T06:55:47;17.50;99.90
12957;DHT22;6543;48.836;10.092;2023-05-29T06:58:14;17.70;99.90
12957;DHT22;6543;48.836;10.092;2023-05-29T07:00:41;17.80;99.90
12957;DHT22;6543;48.836;10.092;2023-05-29T07:03:09;18.20;99.90
12957;DHT22;6543;48.836;10.092;2023-05-29T07:05:36;18.30;99.90
12957;DHT22;6543;48.836;10.092;2023-05-29T07:08:03;18.50;99.90
12957;DHT22;6543;48.836;10.092;2023-05-29T07:10:32;18.50;99.90
12957;DHT22;6543;48.836;10.092;2023-05-29T07:12:58;18.60;99.90
12957;DHT22;6543;48.836;10.092;2023-05-29T07:15:25;18.90;99.90
12957;DHT22;6543;48.836;10.092;2023-05-29T07:17:52;19.70;99.90
12957;DHT22;6543;48.836;10.092;2023-05-29T07:20:21;19.60;99.90
12957;DHT22;6543;48.836;10.092;2023-05-29T07:22:48;19.40;99.90
12957;DHT22;6543;48.836;10.092;2023-05-29T07:25:14;19.60;99.90
12957;DHT22;6543;48.836;10.092;2023-05-29T07:27:41;19.60;99.90
12957;DHT22;6543;48.836;10.092;2023-05-29T07:30:09;19.60;99.90
12957;DHT22;6543;48.836;10.092;2023-05-29T07:32:36;19.60;99.90
12957;DHT22;6543;48.836;10.092;2023-05-29T07:35:04;19.50;99.90
12957;DHT22;6543;48.836;10.092;2023-05-29T07:37:33;19.70;99.90
12957;DHT22;6543;48.836;10.092;2023-05-29T07:40:00;19.90;99.90
12957;DHT22;6543;48.836;10.092;2023-05-29T07:42:28;20.10;99.90
12957;DHT22;6543;48.836;10.092;2023-05-29T07:44:55;20.10;99.90
12957;DHT22;6543;48.836;10.092;2023-05-29T07:47:22;19.80;99.90
12957;DHT22;6543;48.836;10.092;2023-05-29T07:49:49;20.00;99.90
12957;DHT22;6543;48.836;10.092;2023-05-29T07:52:17;20.00;99.90
12957;DHT22;6543;48.836;10.092;2023-05-29T07:54:46;20.10;99.90
12957;DHT22;6543;48.836;10.092;2023-05-29T07:57:13;20.30;99.90
12957;DHT22;6543;48.836;10.092;2023-05-29T07:59:40;20.30;99.90
12957;DHT22;6543;48.836;10.092;2023-05-29T08:02:08;20.60;99.90
12957;DHT22;6543;48.836;10.092;2023-05-29T08:04:35;20.70;99.90
12957;DHT22;6543;48.836;10.092;2023-05-29T08:07:02;20.60;99.90
12957;DHT22;6543;48.836;10.092;2023-05-29T08:09:30;20.90;99.90
12957;DHT22;6543;48.836;10.092;2023-05-29T08:11:58;20.80;99.90
12957;DHT22;6543;48.836;10.092;2023-05-29T08:14:28;20.70;99.90
12957;DHT22;6543;48.836;10.092;2023-05-29T08:16:55;20.60;99.90
12957;DHT22;6543;48.836;10.092;2023-05-29T08:19:24;20.80;99.90
12957;DHT22;6543;48.836;10.092;2023-05-29T08:21:54;20.80;99.90
12957;DHT22;6543;48.836;10.092;2023-05-29T08:24:21;20.30;99.90
12957;DHT22;6543;48.836;10.092;2023-05-29T08:26:48;20.80;99.90
12957;DHT22;6543;48.836;10.092;2023-05-29T08:29:17;20.80;99.90
12957;DHT22;6543;48.836;10.092;2023-05-29T08:31:43;20.80;99.90
12957;DHT22;6543;48.836;10.092;2023-05-29T08:34:11;20.70;99.90
12957;DHT22;6543;48.836;10.092;2023-05-29T08:36:38;20.60;99.00
12957;DHT22;6543;48.836;10.092;2023-05-29T08:39:06;21.10;99.90
12957;DHT22;6543;48.836;10.092;2023-05-29T08:41:44;21.10;99.90
12957;DHT22;6543;48.836;10.092;2023-05-29T08:44:30;20.80;98.90
12957;DHT22;6543;48.836;10.092;2023-05-29T08:47:01;21.00;98.90
12957;DHT22;6543;48.836;10.092;2023-05-29T08:49:29;20.70;99.10
12957;DHT22;6543;48.836;10.092;2023-05-29T08:52:05;20.70;99.00
12957;DHT22;6543;48.836;10.092;2023-05-29T08:54:33;20.70;98.50
12957;DHT22;6543;48.836;10.092;2023-05-29T08:57:08;20.70;98.80
12957;DHT22;6543;48.836;10.092;2023-05-29T09:01:17;21.50;98.90
12957;DHT22;6543;48.836;10.092;2023-05-29T09:03:34;21.00;98.40
12957;DHT22;6543;48.836;10.092;2023-05-29T09:06:47;19.50;96.80
12957;DHT22;6543;48.836;10.092;2023-05-29T09:09:40;20.90;97.90
12957;DHT22;6543;48.836;10.092;2023-05-29T09:12:42;19.50;96.90
12957;DHT22;6543;48.836;10.092;2023-05-29T09:16:09;20.80;97.20
12957;DHT22;6543;48.836;10.092;2023-05-29T09:22:31;21.50;97.20
12957;DHT22;6543;48.836;10.092;2023-05-29T09:29:13;21.40;96.60
12957;DHT22;6543;48.836;10.092;2023-05-29T09:32:17;21.20;96.70
12957;DHT22;6543;48.836;10.092;2023-05-29T09:38:03;21.80;95.70
12957;DHT22;6543;48.836;10.092;2023-05-29T09:40:44;23.10;96.50
12957;DHT22;6543;48.836;10.092;2023-05-29T09:43:24;21.40;96.30
12957;DHT22;6543;48.836;10.092;2023-05-29T09:45:58;21.50;97.40
12957;DHT22;6543;48.836;10.092;2023-05-29T09:52:13;21.50;96.60
12957;DHT22;6543;48.836;10.092;2023-05-29T09:54:51;21.70;96.50
12957;DHT22;6543;48.836;10.092;2023-05-29T09:57:18;21.40;96.80
12957;DHT22;6543;48.836;10.092;2023-05-29T09:59:46;21.70;96.60
12957;DHT22;6543;48.836;10.092;2023-05-29T10:02:17;21.90;95.90
12957;DHT22;6543;48.836;10.092;2023-05-29T10:04:44;22.00;96.40
12957;DHT22;6543;48.836;10.092;2023-05-29T10:07:24;22.60;95.70
12957;DHT22;6543;48.836;10.092;2023-05-29T10:10:31;22.40;95.00
12957;DHT22;6543;48.836;10.092;2023-05-29T10:13:42;22.80;95.40
12957;DHT22;6543;48.836;10.092;2023-05-29T10:16:21;22.10;95.10
12957;DHT22;6543;48.836;10.092;2023-05-29T10:18:54;21.10;94.30
12957;DHT22;6543;48.836;10.092;2023-05-29T10:21:40;21.50;94.40
12957;DHT22;6543;48.836;10.092;2023-05-29T10:24:20;20.80;94.60
12957;DHT22;6543;48.836;10.092;2023-05-29T10:29:39;22.20;95.10
12957;DHT22;6543;48.836;10.092;2023-05-29T10:32:29;22.70;94.70
12957;DHT22;6543;48.836;10.092;2023-05-29T10:35:40;22.40;94.10
12957;DHT22;6543;48.836;10.092;2023-05-29T10:38:20;22.50;94.20
12957;DHT22;6543;48.836;10.092;2023-05-29T10:41:35;22.30;94.00
12957;DHT22;6543;48.836;10.092;2023-05-29T10:44:39;22.50;93.10
12957;DHT22;6543;48.836;10.092;2023-05-29T10:47:25;21.90;92.60
12957;DHT22;6543;48.836;10.092;2023-05-29T10:50:00;21.40;92.30
12957;DHT22;6543;48.836;10.092;2023-05-29T10:52:48;22.10;93.50
12957;DHT22;6543;48.836;10.092;2023-05-29T10:55:35;21.90;93.80
12957;DHT22;6543;48.836;10.092;2023-05-29T10:58:17;22.00;93.30
12957;DHT22;6543;48.836;10.092;2023-05-29T11:01:08;22.00;92.50
12957;DHT22;6543;48.836;10.092;2023-05-29T11:06:42;22.60;91.50
12957;DHT22;6543;48.836;10.092;2023-05-29T11:09:26;22.20;92.70
12957;DHT22;6543;48.836;10.092;2023-05-29T11:12:21;22.50;92.10
12957;DHT22;6543;48.836;10.092;2023-05-29T11:18:06;22.80;93.20
12957;DHT22;6543;48.836;10.092;2023-05-29T11:20:36;22.10;92.80
12957;DHT22;6543;48.836;10.092;2023-05-29T11:23:17;22.40;92.40
12957;DHT22;6543;48.836;10.092;2023-05-29T11:25:52;23.20;92.80
12957;DHT22;6543;48.836;10.092;2023-05-29T11:28:22;22.80;91.50
12957;DHT22;6543;48.836;10.092;2023-05-29T11:31:02;22.90;91.70
12957;DHT22;6543;48.836;10.092;2023-05-29T11:33:41;22.90;91.20
12957;DHT22;6543;48.836;10.092;2023-05-29T11:36:11;22.90;90.60
12957;DHT22;6543;48.836;10.092;2023-05-29T11:38:38;23.10;91.00
12957;DHT22;6543;48.836;10.092;2023-05-29T11:41:05;23.20;91.00
12957;DHT22;6543;48.836;10.092;2023-05-29T11:43:32;23.30;90.90
12957;DHT22;6543;48.836;10.092;2023-05-29T11:46:01;23.50;90.50
12957;DHT22;6543;48.836;10.092;2023-05-29T11:48:28;23.50;90.60
12957;DHT22;6543;48.836;10.092;2023-05-29T11:51:41;23.10;90.60
12957;DHT22;6543;48.836;10.092;2023-05-29T11:54:18;23.00;90.80
12957;DHT22;6543;48.836;10.092;2023-05-29T11:56:55;23.30;91.10
12957;DHT22;6543;48.836;10.092;2023-05-29T11:59:35;23.40;91.20
12957;DHT22;6543;48.836;10.092;2023-05-29T12:02:08;23.30;91.30
12957;DHT22;6543;48.836;10.092;2023-05-29T12:04:40;23.50;91.00
12957;DHT22;6543;48.836;10.092;2023-05-29T12:07:19;22.60;91.00
12957;DHT22;6543;48.836;10.092;2023-05-29T12:09:47;22.60;90.20
12957;DHT22;6543;48.836;10.092;2023-05-29T12:12:18;23.70;90.40
12957;DHT22;6543;48.836;10.092;2023-05-29T12:14:50;23.50;90.60
12957;DHT22;6543;48.836;10.092;2023-05-29T12:17:21;23.20;88.50
12957;DHT22;6543;48.836;10.092;2023-05-29T12:19:56;23.20;86.70
12957;DHT22;6543;48.836;10.092;2023-05-29T12:22:34;23.20;85.80
12957;DHT22;6543;48.836;10.092;2023-05-29T12:25:47;24.50;86.70
12957;DHT22;6543;48.836;10.092;2023-05-29T12:27:57;23.60;84.50
12957;DHT22;6543;48.836;10.092;2023-05-29T12:30:39;24.00;85.30
12957;DHT22;6543;48.836;10.092;2023-05-29T12:36:33;23.40;85.10
12957;DHT22;6543;48.836;10.092;2023-05-29T12:39:09;23.50;85.30
12957;DHT22;6543;48.836;10.092;2023-05-29T12:44:32;23.70;81.70
12957;DHT22;6543;48.836;10.092;2023-05-29T12:47:27;23.90;79.40
12957;DHT22;6543;48.836;10.092;2023-05-29T12:50:28;23.90;78.80
12957;DHT22;6543;48.836;10.092;2023-05-29T12:53:10;23.90;77.80
12957;DHT22;6543;48.836;10.092;2023-05-29T12:56:14;24.20;76.10
12957;DHT22;6543;48.836;10.092;2023-05-29T12:58:45;23.60;76.30
12957;DHT22;6543;48.836;10.092;2023-05-29T13:01:21;23.70;78.40
12957;DHT22;6543;48.836;10.092;2023-05-29T13:04:26;23.80;77.80
12957;DHT22;6543;48.836;10.092;2023-05-29T13:07:08;23.90;77.30
12957;DHT22;6543;48.836;10.092;2023-05-29T13:10:10;23.90;77.20
12957;DHT22;6543;48.836;10.092;2023-05-29T13:13:07;23.90;77.60
12957;DHT22;6543;48.836;10.092;2023-05-29T13:16:09;24.10;76.40
12957;DHT22;6543;48.836;10.092;2023-05-29T13:18:51;24.30;76.30
12957;DHT22;6543;48.836;10.092;2023-05-29T13:24:36;24.10;76.50
12957;DHT22;6543;48.836;10.092;2023-05-29T13:30:40;24.20;75.90
12957;DHT22;6543;48.836;10.092;2023-05-29T13:36:30;24.30;75.90
12957;DHT22;6543;48.836;10.092;2023-05-29T13:39:10;24.50;74.60
12957;DHT22;6543;48.836;10.092;2023-05-29T13:41:44;24.30;74.70
12957;DHT22;6543;48.836;10.092;2023-05-29T13:44:34;24.60;75.20
12957;DHT22;6543;48.836;10.092;2023-05-29T13:47:03;24.60;73.30
12957;DHT22;6543;48.836;10.092;2023-05-29T13:49:33;24.70;74.70
12957;DHT22;6543;48.836;10.092;2023-05-29T13:52:18;24.50;71.40
12957;DHT22;6543;48.836;10.092;2023-05-29T13:54:48;24.30;71.40
12957;DHT22;6543;48.836;10.092;2023-05-29T13:57:19;25.40;72.80
12957;DHT22;6543;48.836;10.092;2023-05-29T13:59:51;24.90;72.70
12957;DHT22;6543;48.836;10.092;2023-05-29T14:02:26;24.80;71.30
12957;DHT22;6543;48.836;10.092;2023-05-29T14:05:18;24.80;71.20
12957;DHT22;6543;48.836;10.092;2023-05-29T14:07:49;24.90;71.00
12957;DHT22;6543;48.836;10.092;2023-05-29T14:10:19;24.80;70.30
12957;DHT22;6543;48.836;10.092;2023-05-29T14:12:48;24.90;70.60
12957;DHT22;6543;48.836;10.092;2023-05-29T14:15:19;24.80;70.50
12957;DHT22;6543;48.836;10.092;2023-05-29T14:17:56;25.10;70.30
12957;DHT22;6543;48.836;10.092;2023-05-29T14:20:28;23.80;68.90
12957;DHT22;6543;48.836;10.092;2023-05-29T14:23:03;25.60;70.80
12957;DHT22;6543;48.836;10.092;2023-05-29T14:25:39;25.60;70.60
12957;DHT22;6543;48.836;10.092;2023-05-29T14:28:17;25.10;69.00
12957;DHT22;6543;48.836;10.092;2023-05-29T14:31:16;24.60;69.00
12957;DHT22;6543;48.836;10.092;2023-05-29T14:34:18;25.30;68.50
12957;DHT22;6543;48.836;10.092;2023-05-29T14:37:33;25.00;69.50
12957;DHT22;6543;48.836;10.092;2023-05-29T14:40:06;24.70;69.00
12957;DHT22;6543;48.836;10.092;2023-05-29T14:42:33;25.80;68.80
12957;DHT22;6543;48.836;10.092;2023-05-29T14:45:14;26.00;69.30
12957;DHT22;6543;48.836;10.092;2023-05-29T14:47:47;25.00;68.10
12957;DHT22;6543;48.836;10.092;2023-05-29T14:50:15;26.10;68.20
12957;DHT22;6543;48.836;10.092;2023-05-29T14:53:04;26.70;67.50
12957;DHT22;6543;48.836;10.092;2023-05-29T14:55:44;26.30;66.20
12957;DHT22;6543;48.836;10.092;2023-05-29T14:58:15;26.30;66.70
12957;DHT22;6543;48.836;10.092;2023-05-29T15:01:12;26.50;67.60
12957;DHT22;6543;48.836;10.092;2023-05-29T15:03:58;26.30;66.10
12957;DHT22;6543;48.836;10.092;2023-05-29T15:06:37;27.70;66.30
12957;DHT22;6543;48.836;10.092;2023-05-29T15:09:07;28.00;64.90
12957;DHT22;6543;48.836;10.092;2023-05-29T15:11:37;27.60;66.00
12957;DHT22;6543;48.836;10.092;2023-05-29T15:14:37;26.70;66.20
12957;DHT22;6543;48.836;10.092;2023-05-29T15:17:18;26.70;66.50
12957;DHT22;6543;48.836;10.092;2023-05-29T15:22:55;27.20;65.80
12957;DHT22;6543;48.836;10.092;2023-05-29T15:25:43;27.20;65.50
12957;DHT22;6543;48.836;10.092;2023-05-29T15:28:15;27.10;65.60
12957;DHT22;6543;48.836;10.092;2023-05-29T15:30:50;26.90;63.90
12957;DHT22;6543;48.836;10.092;2023-05-29T15:33:39;28.20;63.70
12957;DHT22;6543;48.836;10.092;2023-05-29T15:36:15;27.10;64.10
12957;DHT22;6543;48.836;10.092;2023-05-29T15:38:54;27.40;64.00
12957;DHT22;6543;48.836;10.092;2023-05-29T15:41:35;27.00;64.50
12957;DHT22;6543;48.836;10.092;2023-05-29T15:44:04;27.30;64.50
12957;DHT22;6543;48.836;10.092;2023-05-29T15:46:35;27.80;63.00
12957;DHT22;6543;48.836;10.092;2023-05-29T15:49:19;28.50;62.30
12957;DHT22;6543;48.836;10.092;2023-05-29T15:51:53;30.10;63.40
12957;DHT22;6543;48.836;10.092;2023-05-29T15:54:32;29.10;63.60
12957;DHT22;6543;48.836;10.092;2023-05-29T15:57:04;29.20;62.50
12957;DHT22;6543;48.836;10.092;2023-05-29T15:59:32;29.30;62.40
12957;DHT22;6543;48.836;10.092;2023-05-29T16:02:03;26.80;62.30
12957;DHT22;6543;48.836;10.092;2023-05-29T16:04:41;26.90;63.30
12957;DHT22;6543;48.836;10.092;2023-05-29T16:16:10;26.20;63.70
12957;DHT22;6543;48.836;10.092;2023-05-29T16:18:51;25.70;64.80
12957;DHT22;6543;48.836;10.092;2023-05-29T16:21:18;25.50;65.10
12957;DHT22;6543;48.836;10.092;2023-05-29T16:23:58;25.30;66.30
12957;DHT22;6543;48.836;10.092;2023-05-29T16:26:36;25.60;65.70
12957;DHT22;6543;48.836;10.092;2023-05-29T16:29:48;25.00;66.10
12957;DHT22;6543;48.836;10.092;2023-05-29T16:42:54;24.90;66.30
12957;DHT22;6543;48.836;10.092;2023-05-29T16:46:14;24.50;66.10
12957;DHT22;6543;48.836;10.092;2023-05-29T16:49:02;24.60;66.40
12957;DHT22;6543;48.836;10.092;2023-05-29T16:52:02;24.50;66.90
12957;DHT22;6543;48.836;10.092;2023-05-29T16:55:03;24.20;65.90
12957;DHT22;6543;48.836;10.092;2023-05-29T17:08:08;24.10;66.50
12957;DHT22;6543;48.836;10.092;2023-05-29T17:10:44;24.40;67.10
12957;DHT22;6543;48.836;10.092;2023-05-29T17:13:18;25.10;68.00
12957;DHT22;6543;48.836;10.092;2023-05-29T17:15:55;24.30;67.20
12957;DHT22;6543;48.836;10.092;2023-05-29T17:18:28;24.20;67.80
12957;DHT22;6543;48.836;10.092;2023-05-29T17:21:09;24.20;67.40
12957;DHT22;6543;48.836;10.092;2023-05-29T17:23:57;24.90;69.10
12957;DHT22;6543;48.836;10.092;2023-05-29T17:26:32;21.10;64.00
12957;DHT22;6543;48.836;10.092;2023-05-29T17:29:42;24.00;68.00
12957;DHT22;6543;48.836;10.092;2023-05-29T17:32:30;23.90;69.00
12957;DHT22;6543;48.836;10.092;2023-05-29T17:35:52;24.20;68.90
12957;DHT22;6543;48.836;10.092;2023-05-29T17:42:04;23.80;69.20
12957;DHT22;6543;48.836;10.092;2023-05-29T17:44:50;23.80;70.00
12957;DHT22;6543;48.836;10.092;2023-05-29T17:50:54;23.50;70.30
12957;DHT22;6543;48.836;10.092;2023-05-29T17:57:22;25.30;73.30
12957;DHT22;6543;48.836;10.092;2023-05-29T18:00:20;23.40;72.70
12957;DHT22;6543;48.836;10.092;2023-05-29T18:03:12;24.00;73.50
12957;DHT22;6543;48.836;10.092;2023-05-29T18:06:27;23.30;73.10